Apple Valley, Minnesota
Current Conditions -  °F | °C
As of 4:06 PM on Thursday 27 Nov 2014 (Local Time) from KLVN Reporting Station
Clear Clear  
Wind Chill: -16°   Ceiling: Unl
Heat Index: -16°   Visibility: 10mi
Dew Point: -21°   Wind: 0mph
Humidity: 66%   Direction: NA
Pressure: 30.41"   Gusts: NA
Location:  44.74°N, 93.22°W
Report Text: KLVN 272206Z AUTO 00000KT 10SM CLR M16/M21 A3041 RMK AO2
Loading
Personal Weather Stations






























Interactive Weather Map New forecast layout! Learn more

10-Day Weather Forecast

Advertisements
Track Severe Weather on mobile